Time;durP1;ratioP1;P1;durP2;ratioP2;P2;SDS_P1;SDS_P2;PMS_P1;PMS_P2;Temp;Humidity;BMP_temperature;BMP_pressure;BME280_temperature;BME280_humidity;BME280_pressure;Samples;Min_cycle;Max_cycle;Signal;HPM_P1;HPM_P2
2021/01/08 11:57:34;;;;;;;18.70;12.15;;;;;;;0.37;85.41;95675.28;1056601;27;20347;-80
2021/01/08 11:58:04;;;;;;;14.55;11.77;;;;;;;0.28;84.62;95675.44;1056287;28;20016;-78
2021/01/08 11:58:36;;;;;;;14.48;11.35;;;;;;;0.24;84.40;95676.03;1056082;28;20027;-78
2021/01/08 11:59:06;;;;;;;14.40;11.38;;;;;;;0.30;84.19;95675.22;1056166;28;20061;-79
2021/01/08 11:59:37;;;;;;;14.35;11.57;;;;;;;0.34;84.51;95676.44;1056110;28;20041;-79
2021/01/08 12:00:08;;;;;;;14.40;11.52;;;;;;;0.32;84.14;95678.44;1056154;28;20069;-79
2021/01/08 12:00:38;;;;;;;15.75;11.65;;;;;;;0.27;84.69;95678.22;1056148;28;20059;-78
2021/01/08 12:01:09;;;;;;;14.52;11.13;;;;;;;0.27;84.45;95671.22;1055814;28;20086;-79
2021/01/08 12:01:39;;;;;;;14.07;11.35;;;;;;;0.24;84.74;95676.81;1054957;28;20039;-79
2021/01/08 12:02:10;;;;;;;14.80;11.18;;;;;;;0.25;84.83;95675.03;1056184;28;20023;-78
2021/01/08 12:02:41;;;;;;;15.85;11.57;;;;;;;0.26;85.32;95676.63;1056123;28;20404;-78
2021/01/08 12:03:11;;;;;;;15.45;12.02;;;;;;;0.27;84.95;95668.59;1056147;28;20020;-78
2021/01/08 12:03:42;;;;;;;14.57;11.25;;;;;;;0.26;84.90;95679.25;1056214;28;20416;-78
2021/01/08 12:04:12;;;;;;;14.75;11.48;;;;;;;0.22;84.78;95675.38;1056316;28;20024;-79
2021/01/08 12:04:43;;;;;;;14.18;11.25;;;;;;;0.24;84.75;95676.03;1056452;28;20024;-78
2021/01/08 12:05:13;;;;;;;15.27;11.35;;;;;;;0.19;85.11;95678.38;1056485;28;20020;-77
2021/01/08 12:05:43;;;;;;;17.27;11.85;;;;;;;0.10;86.08;95677.75;1056343;28;20031;-78
2021/01/08 12:06:14;;;;;;;16.48;11.57;;;;;;;0.17;86.40;95678.59;1056311;28;20413;-77
2021/01/08 12:06:44;;;;;;;17.20;11.82;;;;;;;0.24;86.58;95681.25;1056453;28;20511;-79
2021/01/08 12:07:15;;;;;;;15.02;11.60;;;;;;;0.16;86.53;95676.97;1056413;28;20023;-78
2021/01/08 12:07:47;;;;;;;15.52;11.60;;;;;;;0.16;86.01;95679.59;1056037;28;20023;-78
2021/01/08 12:08:17;;;;;;;14.52;11.07;;;;;;;0.18;86.13;95682.00;1051669;28;20028;-78
2021/01/08 12:08:47;;;;;;;15.65;11.60;;;;;;;0.17;85.86;95675.19;1051913;28;20025;-78
2021/01/08 12:09:18;;;;;;;15.10;11.63;;;;;;;0.25;86.63;95682.84;1047889;28;20020;-78
2021/01/08 12:09:48;;;;;;;17.67;12.00;;;;;;;0.20;86.94;95678.19;1047984;28;20377;-78
2021/01/08 12:10:18;;;;;;;17.67;12.75;;;;;;;0.28;87.12;95682.44;1056026;28;20423;-79
2021/01/08 12:10:49;;;;;;;19.98;13.65;;;;;;;0.24;87.40;95678.63;1056099;28;20498;-77
2021/01/08 12:11:22;;;;;;;16.73;12.20;;;;;;;0.24;87.29;95678.63;1056373;28;20084;-78
2021/01/08 12:11:59;;;;;;;17.25;12.77;;;;;;;0.24;87.27;95678.63;1056335;28;20112;-77
2021/01/08 12:12:32;;;;;;;15.32;11.55;;;;;;;0.24;86.92;95676.03;1051774;28;20025;-79
2021/01/08 12:13:03;;;;;;;15.23;11.88;;;;;;;0.22;87.79;95673.59;1051833;28;20077;-78
2021/01/08 12:13:33;;;;;;;17.35;12.85;;;;;;;0.26;86.51;95681.84;1051845;28;20024;-77
2021/01/08 12:14:04;;;;;;;16.70;12.30;;;;;;;0.27;86.49;95680.84;1052897;28;20154;-78
2021/01/08 12:14:34;;;;;;;16.48;12.05;;;;;;;0.23;85.99;95679.59;1056025;28;20019;-78
2021/01/08 12:15:05;;;;;;;14.63;11.60;;;;;;;0.24;86.45;95676.81;1056086;28;20024;-78
2021/01/08 12:15:35;;;;;;;15.30;11.93;;;;;;;0.23;86.12;95677.00;1055350;28;20032;-78
2021/01/08 12:16:06;;;;;;;24.67;16.02;;;;;;;0.22;87.24;95675.38;1051881;28;20020;-78
2021/01/08 12:16:36;;;;;;;17.90;13.93;;;;;;;0.09;87.79;95667.53;1055991;28;20020;-78
2021/01/08 12:17:07;;;;;;;17.00;12.88;;;;;;;0.17;86.08;95669.97;1056001;28;20028;-78
2021/01/08 12:17:41;;;;;;;13.77;11.02;;;;;;;0.14;85.85;95668.56;1055252;28;20028;-78
2021/01/08 12:18:11;;;;;;;16.65;12.38;;;;;;;0.17;85.82;95675.97;1056102;28;20035;-77
2021/01/08 12:18:42;;;;;;;16.65;12.50;;;;;;;0.18;86.57;95674.19;1055862;28;20027;-78
2021/01/08 12:19:15;;;;;;;16.25;11.98;;;;;;;0.17;86.31;95669.97;1055871;28;20016;-77
2021/01/08 12:19:45;;;;;;;15.95;12.00;;;;;;;0.19;86.42;95673.19;1052282;28;20008;-80
2021/01/08 12:20:17;;;;;;;16.58;11.98;;;;;;;0.15;85.42;95669.38;1055970;28;20012;-79
2021/01/08 12:20:48;;;;;;;15.27;11.45;;;;;;;0.14;86.24;95672.97;1055969;28;20023;-77
2021/01/08 12:21:19;;;;;;;15.85;11.30;;;;;;;0.22;85.87;95673.59;1056140;28;20449;-78
2021/01/08 12:21:49;;;;;;;16.10;11.38;;;;;;;0.27;86.42;95675.63;1056465;28;20008;-81
2021/01/08 12:22:20;;;;;;;16.17;11.70;;;;;;;0.26;85.98;95668.81;1056492;28;20020;-82
2021/01/08 12:22:50;;;;;;;14.48;11.52;;;;;;;0.26;85.56;95668.81;1056348;28;20020;-80
2021/01/08 12:23:21;;;;;;;19.35;13.70;;;;;;;0.28;86.67;95667.59;1055872;28;20020;-81
2021/01/08 12:23:51;;;;;;;17.08;11.90;;;;;;;0.28;86.34;95666.81;1056038;28;20457;-80
2021/01/08 12:24:22;;;;;;;16.88;11.88;;;;;;;0.29;86.93;95678.84;1056010;28;20020;-80
2021/01/08 12:24:53;;;;;;;14.50;11.18;;;;;;;0.29;86.25;95677.03;1055963;28;20103;-81
2021/01/08 12:25:23;;;;;;;16.15;11.65;;;;;;;0.25;85.08;95677.63;1056352;28;20414;-80
2021/01/08 12:25:54;;;;;;;17.50;12.73;;;;;;;0.16;85.54;95678.78;1056348;28;20027;-80
2021/01/08 12:26:25;;;;;;;17.45;12.18;;;;;;;0.20;85.50;95674.78;1056363;28;20377;-81
2021/01/08 12:26:55;;;;;;;19.05;13.00;;;;;;;0.25;86.72;95669.81;1056409;28;20027;-81
2021/01/08 12:27:26;;;;;;;17.95;12.65;;;;;;;0.23;86.32;95674.38;1056331;28;20016;-80
2021/01/08 12:27:56;;;;;;;17.63;11.90;;;;;;;0.23;86.19;95671.78;1056311;28;20062;-81
2021/01/08 12:28:27;;;;;;;20.38;13.32;;;;;;;0.25;86.67;95670.63;1056323;28;20054;-81
2021/01/08 12:28:57;;;;;;;24.20;14.48;;;;;;;0.20;87.17;95680.81;1056310;28;20042;-80
2021/01/08 12:29:29;;;;;;;23.52;14.07;;;;;;;0.22;87.15;95678.00;1056338;28;20038;-80
2021/01/08 12:30:00;;;;;;;13.45;10.63;;;;;;;0.24;84.67;95674.22;1056386;28;20423;-81
2021/01/08 12:30:30;;;;;;;13.93;10.38;;;;;;;0.23;84.08;95675.19;1056329;28;20081;-81
2021/01/08 12:31:00;;;;;;;21.52;14.02;;;;;;;0.19;86.39;95673.19;1056381;28;20016;-81
2021/01/08 12:31:31;;;;;;;15.02;10.93;;;;;;;0.23;86.27;95669.97;1055876;28;20070;-80
2021/01/08 12:32:01;;;;;;;36.88;19.38;;;;;;;0.28;88.59;95677.22;1056011;28;20035;-81
2021/01/08 12:32:32;;;;;;;17.60;12.38;;;;;;;0.26;87.16;95674.81;1056020;28;20019;-81
2021/01/08 12:33:02;;;;;;;17.67;12.57;;;;;;;0.29;88.32;95666.59;1051562;28;20054;-81
2021/01/08 12:33:34;;;;;;;16.65;12.25;;;;;;;0.34;87.63;95667.81;1047524;28;20013;-81
2021/01/08 12:34:04;;;;;;;15.00;11.05;;;;;;;0.36;86.09;95673.66;1043007;28;20033;-81
2021/01/08 12:34:35;;;;;;;16.60;11.73;;;;;;;0.38;86.46;95677.69;1039779;28;20406;-81
2021/01/08 12:35:06;;;;;;;17.08;12.10;;;;;;;0.36;85.74;95674.47;1047363;28;20017;-80
2021/01/08 12:35:36;;;;;;;16.95;11.98;;;;;;;0.39;85.58;95668.84;1051899;28;20009;-81
2021/01/08 12:36:09;;;;;;;13.38;10.63;;;;;;;0.44;85.51;95676.88;1051795;28;20381;-80
2021/01/08 12:36:39;;;;;;;16.40;12.55;;;;;;;0.43;86.03;95669.25;1056055;28;20011;-80
2021/01/08 12:37:10;;;;;;;23.33;15.43;;;;;;;0.37;86.47;95672.66;1055828;28;20023;-80
2021/01/08 12:37:40;;;;;;;15.80;11.20;;;;;;;0.38;86.38;95672.47;1056064;28;20016;-80
2021/01/08 12:38:11;;;;;;;14.75;11.00;;;;;;;0.41;85.70;95672.06;1056254;28;20020;-81
2021/01/08 12:38:41;;;;;;;15.73;11.55;;;;;;;0.41;86.00;95666.84;1055907;28;20024;-80
2021/01/08 12:39:11;;;;;;;13.55;10.85;;;;;;;0.36;85.11;95671.84;1051584;28;20441;-80
2021/01/08 12:39:42;;;;;;;14.30;10.68;;;;;;;0.35;84.42;95675.44;1051892;28;20024;-80
2021/01/08 12:40:12;;;;;;;13.68;10.40;;;;;;;0.34;85.94;95671.22;1051776;28;20016;-81
2021/01/08 12:40:43;;;;;;;14.23;10.80;;;;;;;0.39;85.09;95668.06;1055984;28;20085;-79
2021/01/08 12:41:14;;;;;;;15.15;10.70;;;;;;;0.42;84.90;95671.06;1056274;28;20011;-79
2021/01/08 12:41:44;;;;;;;13.82;10.07;;;;;;;0.46;84.88;95666.25;1056282;28;20441;-78
2021/01/08 12:42:14;;;;;;;13.32;10.98;;;;;;;0.49;85.15;95671.09;1056408;28;20023;-82
2021/01/08 12:42:46;;;;;;;14.65;11.02;;;;;;;0.51;85.31;95672.50;1056569;28;20016;-82
2021/01/08 12:43:16;;;;;;;16.05;10.75;;;;;;;0.51;85.10;95666.47;1056441;28;20016;-82
2021/01/08 12:43:46;;;;;;;13.85;10.60;;;;;;;0.56;85.39;95667.47;1056851;28;20031;-82
2021/01/08 12:44:17;;;;;;;14.95;11.05;;;;;;;0.61;86.30;95664.31;1056587;28;20031;-83
2021/01/08 12:44:47;;;;;;;15.77;11.57;;;;;;;0.58;85.36;95662.88;1056581;28;20024;-83
2021/01/08 12:45:18;;;;;;;14.40;11.13;;;;;;;0.59;84.30;95663.69;1056828;28;20028;-83
2021/01/08 12:45:50;;;;;;;14.25;10.75;;;;;;;0.55;85.66;95658.06;1052568;28;20051;-82
2021/01/08 12:46:20;;;;;;;13.40;10.27;;;;;;;0.53;84.44;95665.28;1048849;28;20021;-83
2021/01/08 12:46:51;;;;;;;16.95;10.95;;;;;;;0.49;84.04;95658.84;1048587;28;20029;-83
2021/01/08 12:47:21;;;;;;;14.05;11.05;;;;;;;0.44;84.08;95666.44;1048799;28;20017;-83
2021/01/08 12:47:52;;;;;;;16.30;11.77;;;;;;;0.48;85.56;95662.47;1052750;28;20023;-83
2021/01/08 12:48:22;;;;;;;14.27;11.10;;;;;;;0.47;84.65;95663.44;1056544;28;20035;-83
2021/01/08 12:48:52;;;;;;;14.25;11.13;;;;;;;0.50;83.94;95663.06;1057130;28;20043;-83
2021/01/08 12:49:23;;;;;;;15.10;11.27;;;;;;;0.58;84.36;95670.69;1056899;28;20031;-83
2021/01/08 12:49:53;;;;;;;15.05;10.82;;;;;;;0.56;85.15;95659.66;1056764;28;20077;-83
2021/01/08 12:50:24;;;;;;;14.13;10.35;;;;;;;0.58;85.29;95662.88;1056760;28;20028;-83
2021/01/08 12:50:55;;;;;;;13.70;10.32;;;;;;;0.61;84.39;95666.09;1056618;28;20020;-83
2021/01/08 12:51:25;;;;;;;15.50;11.68;;;;;;;0.58;84.67;95662.06;1055970;28;20544;-83
2021/01/08 12:51:55;;;;;;;15.38;11.13;;;;;;;0.58;83.97;95665.47;1056370;28;20020;-83
2021/01/08 12:52:29;;;;;;;15.57;10.50;;;;;;;0.63;83.83;95658.88;1056321;28;20043;-83
2021/01/08 12:53:00;;;;;;;14.38;11.02;;;;;;;0.61;83.99;95658.28;1055995;28;20023;-83
2021/01/08 12:53:30;;;;;;;15.73;11.05;;;;;;;0.65;86.17;95668.13;1055983;28;20415;-83
2021/01/08 12:54:01;;;;;;;12.30;10.25;;;;;;;0.62;85.50;95657.28;1056028;28;20028;-83
2021/01/08 12:54:32;;;;;;;13.80;10.70;;;;;;;0.63;85.07;95664.91;1056083;28;20457;-83
2021/01/08 12:55:03;;;;;;;12.43;9.40;;;;;;;0.62;83.81;95665.91;1055969;28;20011;-83
2021/01/08 12:55:33;;;;;;;12.77;9.80;;;;;;;0.64;83.62;95656.06;1051680;28;20029;-83
2021/01/08 12:56:03;;;;;;;13.57;10.18;;;;;;;0.64;84.20;95655.28;1051884;28;20404;-83
2021/01/08 12:56:34;;;;;;;15.95;11.27;;;;;;;0.61;84.90;95661.69;1051907;28;20496;-83
2021/01/08 12:57:05;;;;;;;14.30;11.00;;;;;;;0.62;84.67;95668.50;1051666;28;20020;-83
2021/01/08 12:57:35;;;;;;;14.93;10.27;;;;;;;0.61;84.64;95660.91;1056227;28;20035;-83
2021/01/08 12:58:06;;;;;;;14.90;10.50;;;;;;;0.57;84.32;95663.06;1056263;28;20024;-83
2021/01/08 12:58:36;;;;;;;15.90;10.65;;;;;;;0.50;84.52;95665.69;1056197;28;20016;-83
2021/01/08 12:59:07;;;;;;;14.98;10.10;;;;;;;0.53;85.19;95656.66;1056299;28;20012;-83
2021/01/08 12:59:37;;;;;;;12.98;10.32;;;;;;;0.55;84.64;95660.66;1056286;28;20023;-83
2021/01/08 13:00:08;;;;;;;14.38;10.95;;;;;;;0.49;84.34;95661.47;1056046;28;20085;-83
2021/01/08 13:00:38;;;;;;;15.20;11.25;;;;;;;0.42;84.91;95657.22;1055905;28;20028;-83
2021/01/08 13:01:10;;;;;;;14.40;10.63;;;;;;;0.46;85.23;95664.44;1055134;28;20032;-83
2021/01/08 13:01:40;;;;;;;14.38;11.20;;;;;;;0.49;85.86;95658.84;1051968;28;20021;-83
2021/01/08 13:02:10;;;;;;;15.32;11.15;;;;;;;0.45;85.39;95655.03;1056024;28;20027;-83
2021/01/08 13:02:41;;;;;;;14.95;11.02;;;;;;;0.44;84.81;95661.22;1047753;28;20037;-83
2021/01/08 13:03:11;;;;;;;17.17;11.60;;;;;;;0.49;85.66;95661.47;1047660;28;20025;-83
2021/01/08 13:03:42;;;;;;;14.27;10.50;;;;;;;0.51;85.38;95656.06;1047539;28;20028;-83
2021/01/08 13:04:12;;;;;;;14.43;10.95;;;;;;;0.53;85.22;95660.06;1047719;28;20025;-83
2021/01/08 13:04:43;;;;;;;13.52;10.20;;;;;;;0.53;84.89;95657.44;1055401;28;20039;-83
2021/01/08 13:05:13;;;;;;;14.00;11.00;;;;;;;0.51;84.23;95662.06;1056017;28;20027;-84
2021/01/08 13:05:47;;;;;;;16.70;11.57;;;;;;;0.55;84.67;95663.28;1056345;28;20106;-83
2021/01/08 13:06:24;;;;;;;16.05;11.50;;;;;;;0.56;84.66;95664.06;1055993;28;20357;-83
2021/01/08 13:06:55;;;;;;;13.93;10.20;;;;;;;0.55;84.50;95660.66;1056074;28;20020;-83
2021/01/08 13:07:25;;;;;;;15.60;10.88;;;;;;;0.53;85.74;95662.66;1056021;28;20400;-83
2021/01/08 13:07:55;;;;;;;14.90;10.52;;;;;;;0.50;84.60;95665.69;1055995;28;20024;-83
2021/01/08 13:08:26;;;;;;;14.60;11.48;;;;;;;0.48;84.62;95657.25;1056032;28;20050;-83
2021/01/08 13:08:56;;;;;;;14.65;10.80;;;;;;;0.50;84.39;95665.69;1053550;28;20024;-83
2021/01/08 13:09:27;;;;;;;13.40;9.98;;;;;;;0.51;83.80;95662.06;1053040;28;20028;-83
2021/01/08 13:09:57;;;;;;;11.13;9.30;;;;;;;0.45;83.99;95664.66;1048911;28;20421;-83
2021/01/08 13:10:28;;;;;;;15.50;11.57;;;;;;;0.46;84.14;95659.22;1048984;28;20039;-83
2021/01/08 13:10:58;;;;;;;14.75;10.88;;;;;;;0.50;84.52;95654.44;1049021;28;20029;-83
2021/01/08 13:11:28;;;;;;;14.60;11.00;;;;;;;0.50;84.70;95655.25;1048998;28;20025;-83
2021/01/08 13:11:59;;;;;;;14.52;10.70;;;;;;;0.48;84.25;95667.69;1048947;28;20028;-83
2021/01/08 13:12:29;;;;;;;14.10;10.52;;;;;;;0.49;84.32;95652.84;1048881;28;20016;-83
2021/01/08 13:13:01;;;;;;;13.23;9.88;;;;;;;0.48;83.89;95657.25;1044937;28;20486;-83
2021/01/08 13:13:31;;;;;;;14.63;10.82;;;;;;;0.48;84.34;95657.25;1049284;28;20042;-83
2021/01/08 13:14:01;;;;;;;15.27;11.50;;;;;;;0.47;84.90;95657.44;1053178;28;20024;-83
2021/01/08 13:14:32;;;;;;;14.15;10.60;;;;;;;0.44;84.77;95663.03;1049118;28;20033;-83
2021/01/08 13:15:04;;;;;;;14.05;11.32;;;;;;;0.42;85.26;95658.03;1053287;28;20055;-83
2021/01/08 13:15:34;;;;;;;14.35;10.38;;;;;;;0.45;84.62;95657.63;1044864;28;20492;-83
2021/01/08 13:16:05;;;;;;;13.27;10.45;;;;;;;0.46;84.59;95654.00;1045235;28;20032;-82
2021/01/08 13:16:36;;;;;;;14.48;10.15;;;;;;;0.46;84.97;95654.00;1048899;28;20035;-83
2021/01/08 13:17:06;;;;;;;13.48;10.90;;;;;;;0.50;84.83;95657.06;1045324;28;20029;-83
2021/01/08 13:17:37;;;;;;;14.25;11.07;;;;;;;0.45;83.66;95662.84;1052889;28;20028;-80
2021/01/08 13:18:07;;;;;;;15.30;11.05;;;;;;;0.52;84.16;95662.88;1053013;28;20501;-80
2021/01/08 13:18:37;;;;;;;13.73;9.75;;;;;;;0.53;83.80;95660.06;1053103;28;20027;-78
2021/01/08 13:19:08;;;;;;;14.48;10.65;;;;;;;0.53;84.10;95657.44;1057186;28;20027;-79
2021/01/08 13:19:38;;;;;;;13.88;10.05;;;;;;;0.56;84.19;95659.66;1057068;28;20019;-80
2021/01/08 13:20:09;;;;;;;14.48;11.02;;;;;;;0.57;83.88;95660.47;1057201;28;20027;-79
2021/01/08 13:20:40;;;;;;;14.90;11.63;;;;;;;0.59;84.54;95658.47;1051045;28;20031;-79
2021/01/08 13:21:10;;;;;;;14.88;10.93;;;;;;;0.52;84.04;95650.63;1051592;28;20028;-79
2021/01/08 13:21:45;;;;;;;13.20;9.93;;;;;;;0.55;84.88;95655.44;1048755;28;20009;-79
2021/01/08 13:22:16;;;;;;;12.80;9.90;;;;;;;0.51;83.34;95656.84;1044500;28;20021;-79
2021/01/08 13:22:46;;;;;;;15.88;10.85;;;;;;;0.49;84.67;95663.28;1040399;28;20022;-79
2021/01/08 13:23:17;;;;;;;13.20;9.75;;;;;;;0.52;84.38;95653.25;1037013;28;20022;-79
2021/01/08 13:23:47;;;;;;;14.07;10.52;;;;;;;0.56;84.64;95664.06;1037072;28;20030;-79
2021/01/08 13:24:18;;;;;;;15.25;10.90;;;;;;;0.54;83.77;95658.25;1040573;28;20026;-79
2021/01/08 13:24:49;;;;;;;14.75;11.13;;;;;;;0.51;83.48;95654.25;1044837;28;20028;-79
2021/01/08 13:25:19;;;;;;;13.63;9.98;;;;;;;0.45;83.91;95656.81;1048715;28;20032;-79
2021/01/08 13:25:50;;;;;;;14.27;10.63;;;;;;;0.47;83.91;95655.63;1048763;28;20017;-79
2021/01/08 13:26:26;;;;;;;13.73;10.73;;;;;;;0.53;83.56;95662.66;1048783;28;20016;-79
2021/01/08 13:26:56;;;;;;;13.95;10.50;;;;;;;0.51;83.21;95661.28;1048741;28;20111;-79
2021/01/08 13:27:30;;;;;;;13.82;9.75;;;;;;;0.52;82.93;95666.28;1048773;28;20024;-79
2021/01/08 13:28:00;;;;;;;15.80;10.43;;;;;;;0.51;83.38;95662.06;1048796;28;20133;-79
2021/01/08 13:28:30;;;;;;;13.82;10.93;;;;;;;0.50;85.45;95664.88;1048853;28;20067;-79
2021/01/08 13:29:01;;;;;;;12.93;9.25;;;;;;;0.47;85.30;95665.25;1044556;28;20083;-79
2021/01/08 13:29:31;;;;;;;13.95;10.32;;;;;;;0.48;84.62;95662.47;1045019;28;20551;-79
2021/01/08 13:30:06;;;;;;;13.93;10.70;;;;;;;0.51;84.06;95671.69;1048742;28;20047;-79
2021/01/08 13:30:37;;;;;;;13.23;9.82;;;;;;;0.51;84.74;95667.28;1044668;28;20027;-79
2021/01/08 13:31:07;;;;;;;13.38;9.65;;;;;;;0.56;84.51;95659.66;1044574;28;20087;-79
2021/01/08 13:31:38;;;;;;;12.73;9.35;;;;;;;0.58;83.89;95667.28;1040440;28;20018;-79
2021/01/08 13:32:08;;;;;;;13.30;10.15;;;;;;;0.62;83.92;95667.72;1040980;28;20495;-79
2021/01/08 13:32:39;;;;;;;11.25;8.68;;;;;;;0.58;83.14;95662.06;1044620;28;20021;-79
2021/01/08 13:33:09;;;;;;;13.20;9.57;;;;;;;0.61;82.88;95663.50;1044637;28;20505;-78
2021/01/08 13:33:40;;;;;;;12.80;9.90;;;;;;;0.58;82.73;95665.47;1048661;28;20027;-79
2021/01/08 13:34:11;;;;;;;14.13;10.43;;;;;;;0.53;82.79;95670.50;1044714;28;20017;-79
2021/01/08 13:34:41;;;;;;;13.13;9.65;;;;;;;0.50;83.02;95665.69;1040359;28;20401;-79
2021/01/08 13:35:12;;;;;;;13.70;9.80;;;;;;;0.52;83.17;95663.69;1036203;28;20025;-78
2021/01/08 13:35:42;;;;;;;12.88;9.98;;;;;;;0.53;83.04;95654.84;1032389;28;20480;-78
2021/01/08 13:36:13;;;;;;;13.50;9.88;;;;;;;0.55;83.36;95663.28;1036538;28;20026;-79
2021/01/08 13:36:43;;;;;;;13.68;10.27;;;;;;;0.56;83.57;95659.66;1040687;28;20021;-79
2021/01/08 13:37:14;;;;;;;12.63;9.05;;;;;;;0.47;84.09;95666.06;1044614;28;20129;-79
2021/01/08 13:37:44;;;;;;;16.35;11.02;;;;;;;0.50;82.81;95670.09;1044434;28;20033;-79
2021/01/08 13:38:14;;;;;;;13.00;9.27;;;;;;;0.51;82.68;95664.69;1040619;28;20017;-79
2021/01/08 13:38:45;;;;;;;14.43;9.77;;;;;;;0.54;82.88;95672.09;1044602;28;20029;-79
2021/01/08 13:39:15;;;;;;;13.30;9.85;;;;;;;0.54;83.50;95666.88;1044686;28;20440;-79
2021/01/08 13:39:46;;;;;;;13.00;9.52;;;;;;;0.54;83.42;95666.09;1048768;28;20481;-79
2021/01/08 13:40:17;;;;;;;13.73;9.65;;;;;;;0.53;83.38;95670.50;1048648;28;20017;-79
2021/01/08 13:40:48;;;;;;;13.73;9.75;;;;;;;0.51;83.77;95666.47;1044660;28;20519;-78
2021/01/08 13:41:18;;;;;;;15.02;9.55;;;;;;;0.50;83.23;95659.66;1044560;28;20009;-79
2021/01/08 13:42:02;;;;;;;13.88;9.45;;;;;;;0.52;83.32;95674.09;1044812;28;20051;-79
2021/01/08 13:42:33;;;;;;;12.40;9.27;;;;;;;0.49;83.05;95674.50;1042581;28;20044;-80
2021/01/08 13:43:03;;;;;;;12.07;9.10;;;;;;;0.47;84.13;95671.25;1043899;28;20572;-78
2021/01/08 13:43:33;;;;;;;12.55;9.13;;;;;;;0.51;83.47;95669.09;1040595;28;20025;-79
2021/01/08 13:44:05;;;;;;;11.60;8.88;;;;;;;0.47;82.51;95670.47;1040659;28;20025;-80
2021/01/08 13:44:35;;;;;;;11.48;8.48;;;;;;;0.47;82.01;95676.47;1040409;28;20115;-79
2021/01/08 13:45:06;;;;;;;13.00;9.30;;;;;;;0.50;82.58;95673.50;1041243;28;20080;-80
2021/01/08 13:45:36;;;;;;;11.60;9.35;;;;;;;0.51;83.68;95666.47;1049029;28;20028;-79
2021/01/08 13:46:11;;;;;;;12.50;9.05;;;;;;;0.53;83.48;95680.13;1048683;28;20027;-80
2021/01/08 13:46:48;;;;;;;11.48;8.70;;;;;;;0.53;82.71;95675.72;1044613;28;20145;-79
2021/01/08 13:47:19;;;;;;;12.73;8.85;;;;;;;0.49;82.09;95678.91;1044719;28;20017;-79
2021/01/08 13:47:49;;;;;;;10.43;8.45;;;;;;;0.45;82.34;95686.31;1044679;28;20413;-80
2021/01/08 13:48:20;;;;;;;11.88;8.55;;;;;;;0.45;82.52;95677.69;1046065;28;20025;-80
2021/01/08 13:48:50;;;;;;;12.40;8.35;;;;;;;0.46;81.98;95669.66;1044018;28;20493;-81
2021/01/08 13:49:21;;;;;;;11.32;8.55;;;;;;;0.46;82.34;95680.09;1045381;28;20016;-79
2021/01/08 13:49:51;;;;;;;11.13;8.43;;;;;;;0.48;82.27;95679.91;1047325;28;20037;-80
2021/01/08 13:50:21;;;;;;;10.98;8.10;;;;;;;0.49;82.00;95679.72;1044788;28;20032;-80
2021/01/08 13:50:52;;;;;;;10.73;7.85;;;;;;;0.48;82.09;95672.91;1048829;28;20036;-80
2021/01/08 13:51:23;;;;;;;11.82;8.70;;;;;;;0.45;82.31;95677.69;1044754;28;20470;-80
2021/01/08 13:52:00;;;;;;;10.52;7.93;;;;;;;0.45;81.56;95681.09;1044891;28;20031;-80
